Dick Johnson, Indiana
Current Conditions -  °F | °C
As of 12:53 AM on Thursday 29 Jan 2015 (Local Time) from KHUF Reporting Station
Overcast Overcast  
Wind Chill: 29°   Ceiling: 11000
Heat Index: 38°   Visibility: 10mi
Dew Point: 23°   Wind: 15mph
Humidity: 55%   Direction: 170°S
Pressure: 29.95"   Gusts: NA
Location:  39.5158°N, 87.1262°W
Report Text: KHUF 290553Z 17013KT 10SM OVC110 03/M05 A2995 RMK AO2 SLP147 T00331050 10033 20011 58019
Loading
Personal Weather Stations






























Interactive Weather Map New forecast layout! Learn more

10-Day Weather Forecast

Advertisements
Track Severe Weather on mobile